sensor_id;sensor_type;location;lat;lon;timestamp;P1;durP1;ratioP1;P2;durP2;ratioP2
25657;SDS011;13517;59.320;18.042;2023-05-23T00:01:33;15.30;;;7.28;;
25657;SDS011;13517;59.320;18.042;2023-05-23T00:04:01;11.35;;;7.45;;
25657;SDS011;13517;59.320;18.042;2023-05-23T00:06:27;17.40;;;7.53;;
25657;SDS011;13517;59.320;18.042;2023-05-23T00:08:52;17.75;;;7.90;;
25657;SDS011;13517;59.320;18.042;2023-05-23T00:11:18;13.80;;;7.72;;
25657;SDS011;13517;59.320;18.042;2023-05-23T00:13:44;15.45;;;6.85;;
25657;SDS011;13517;59.320;18.042;2023-05-23T00:16:10;13.07;;;7.10;;
25657;SDS011;13517;59.320;18.042;2023-05-23T00:18:35;15.93;;;7.50;;
25657;SDS011;13517;59.320;18.042;2023-05-23T00:21:01;14.88;;;6.60;;
25657;SDS011;13517;59.320;18.042;2023-05-23T00:23:27;11.63;;;6.47;;
25657;SDS011;13517;59.320;18.042;2023-05-23T00:25:54;15.48;;;7.55;;
25657;SDS011;13517;59.320;18.042;2023-05-23T00:28:20;15.32;;;6.97;;
25657;SDS011;13517;59.320;18.042;2023-05-23T00:30:46;12.32;;;6.53;;
25657;SDS011;13517;59.320;18.042;2023-05-23T00:33:15;15.85;;;6.60;;
25657;SDS011;13517;59.320;18.042;2023-05-23T00:35:41;21.52;;;6.63;;
25657;SDS011;13517;59.320;18.042;2023-05-23T00:38:07;11.35;;;6.43;;
25657;SDS011;13517;59.320;18.042;2023-05-23T00:40:33;12.43;;;6.00;;
25657;SDS011;13517;59.320;18.042;2023-05-23T00:42:59;16.35;;;6.68;;
25657;SDS011;13517;59.320;18.042;2023-05-23T00:45:25;8.77;;;5.82;;
25657;SDS011;13517;59.320;18.042;2023-05-23T00:47:51;18.63;;;7.07;;
25657;SDS011;13517;59.320;18.042;2023-05-23T00:50:17;10.63;;;5.82;;
25657;SDS011;13517;59.320;18.042;2023-05-23T00:52:44;15.38;;;6.10;;
25657;SDS011;13517;59.320;18.042;2023-05-23T00:55:10;10.93;;;6.15;;
25657;SDS011;13517;59.320;18.042;2023-05-23T00:57:36;11.93;;;6.00;;
25657;SDS011;13517;59.320;18.042;2023-05-23T01:00:08;15.82;;;5.90;;
25657;SDS011;13517;59.320;18.042;2023-05-23T01:02:37;12.85;;;5.72;;
25657;SDS011;13517;59.320;18.042;2023-05-23T01:05:07;9.45;;;5.35;;
25657;SDS011;13517;59.320;18.042;2023-05-23T01:07:34;14.45;;;5.72;;
25657;SDS011;13517;59.320;18.042;2023-05-23T01:10:00;14.45;;;5.50;;
25657;SDS011;13517;59.320;18.042;2023-05-23T01:15:35;12.65;;;5.72;;
25657;SDS011;13517;59.320;18.042;2023-05-23T01:18:07;10.93;;;5.50;;
25657;SDS011;13517;59.320;18.042;2023-05-23T01:20:54;12.25;;;5.88;;
25657;SDS011;13517;59.320;18.042;2023-05-23T01:29:02;14.90;;;5.30;;
25657;SDS011;13517;59.320;18.042;2023-05-23T01:31:35;13.85;;;5.75;;
25657;SDS011;13517;59.320;18.042;2023-05-23T01:34:03;12.82;;;5.43;;
25657;SDS011;13517;59.320;18.042;2023-05-23T01:36:31;11.85;;;5.45;;
25657;SDS011;13517;59.320;18.042;2023-05-23T01:38:59;18.92;;;6.13;;
25657;SDS011;13517;59.320;18.042;2023-05-23T01:41:25;13.27;;;5.03;;
25657;SDS011;13517;59.320;18.042;2023-05-23T01:43:50;11.52;;;5.85;;
25657;SDS011;13517;59.320;18.042;2023-05-23T01:46:16;17.70;;;5.68;;
25657;SDS011;13517;59.320;18.042;2023-05-23T01:48:42;10.88;;;5.28;;
25657;SDS011;13517;59.320;18.042;2023-05-23T01:51:09;9.57;;;5.40;;
25657;SDS011;13517;59.320;18.042;2023-05-23T01:53:35;10.52;;;5.00;;
25657;SDS011;13517;59.320;18.042;2023-05-23T01:56:01;11.43;;;6.00;;
25657;SDS011;13517;59.320;18.042;2023-05-23T01:58:27;9.70;;;5.03;;
25657;SDS011;13517;59.320;18.042;2023-05-23T02:00:53;11.70;;;5.35;;
25657;SDS011;13517;59.320;18.042;2023-05-23T02:03:20;14.57;;;5.30;;
25657;SDS011;13517;59.320;18.042;2023-05-23T02:05:45;12.60;;;4.72;;
25657;SDS011;13517;59.320;18.042;2023-05-23T02:08:11;13.43;;;5.40;;
25657;SDS011;13517;59.320;18.042;2023-05-23T02:10:36;10.25;;;5.00;;
25657;SDS011;13517;59.320;18.042;2023-05-23T02:13:01;10.10;;;4.32;;
25657;SDS011;13517;59.320;18.042;2023-05-23T02:15:27;7.45;;;4.65;;
25657;SDS011;13517;59.320;18.042;2023-05-23T02:17:53;11.45;;;4.43;;
25657;SDS011;13517;59.320;18.042;2023-05-23T02:20:18;7.25;;;4.32;;
25657;SDS011;13517;59.320;18.042;2023-05-23T02:22:44;8.60;;;3.67;;
25657;SDS011;13517;59.320;18.042;2023-05-23T02:25:09;10.02;;;4.05;;
25657;SDS011;13517;59.320;18.042;2023-05-23T02:27:35;14.77;;;3.95;;
25657;SDS011;13517;59.320;18.042;2023-05-23T02:30:00;6.30;;;3.63;;
25657;SDS011;13517;59.320;18.042;2023-05-23T02:32:25;11.05;;;3.55;;
25657;SDS011;13517;59.320;18.042;2023-05-23T02:34:51;9.13;;;3.35;;
25657;SDS011;13517;59.320;18.042;2023-05-23T02:37:16;9.32;;;3.35;;
25657;SDS011;13517;59.320;18.042;2023-05-23T02:39:42;7.65;;;3.60;;
25657;SDS011;13517;59.320;18.042;2023-05-23T02:42:08;6.70;;;3.08;;
25657;SDS011;13517;59.320;18.042;2023-05-23T02:44:33;4.70;;;3.13;;
25657;SDS011;13517;59.320;18.042;2023-05-23T02:46:59;6.55;;;3.78;;
25657;SDS011;13517;59.320;18.042;2023-05-23T02:49:24;6.68;;;3.65;;
25657;SDS011;13517;59.320;18.042;2023-05-23T02:51:49;5.68;;;3.67;;
25657;SDS011;13517;59.320;18.042;2023-05-23T02:54:15;12.38;;;3.70;;
25657;SDS011;13517;59.320;18.042;2023-05-23T02:56:41;8.82;;;3.35;;
25657;SDS011;13517;59.320;18.042;2023-05-23T02:59:06;12.73;;;4.03;;
25657;SDS011;13517;59.320;18.042;2023-05-23T03:01:31;7.40;;;3.40;;
25657;SDS011;13517;59.320;18.042;2023-05-23T03:03:57;6.20;;;3.33;;
25657;SDS011;13517;59.320;18.042;2023-05-23T03:06:22;8.10;;;2.95;;
25657;SDS011;13517;59.320;18.042;2023-05-23T03:08:48;9.65;;;3.78;;
25657;SDS011;13517;59.320;18.042;2023-05-23T03:11:13;7.65;;;3.28;;
25657;SDS011;13517;59.320;18.042;2023-05-23T03:13:38;8.00;;;3.85;;
25657;SDS011;13517;59.320;18.042;2023-05-23T03:16:04;12.52;;;3.60;;
25657;SDS011;13517;59.320;18.042;2023-05-23T03:18:30;9.02;;;3.17;;
25657;SDS011;13517;59.320;18.042;2023-05-23T03:20:55;9.73;;;3.67;;
25657;SDS011;13517;59.320;18.042;2023-05-23T03:23:21;7.30;;;3.60;;
25657;SDS011;13517;59.320;18.042;2023-05-23T03:25:47;9.77;;;3.85;;
25657;SDS011;13517;59.320;18.042;2023-05-23T03:28:13;6.97;;;3.72;;
25657;SDS011;13517;59.320;18.042;2023-05-23T03:30:39;7.93;;;3.65;;
25657;SDS011;13517;59.320;18.042;2023-05-23T03:33:04;9.07;;;3.65;;
25657;SDS011;13517;59.320;18.042;2023-05-23T03:35:30;5.15;;;3.38;;
25657;SDS011;13517;59.320;18.042;2023-05-23T03:37:56;11.65;;;3.50;;
25657;SDS011;13517;59.320;18.042;2023-05-23T03:40:21;11.30;;;4.00;;
25657;SDS011;13517;59.320;18.042;2023-05-23T03:42:47;12.07;;;3.40;;
25657;SDS011;13517;59.320;18.042;2023-05-23T03:45:13;9.30;;;3.90;;
25657;SDS011;13517;59.320;18.042;2023-05-23T03:47:39;7.93;;;3.67;;
25657;SDS011;13517;59.320;18.042;2023-05-23T03:50:04;6.88;;;3.45;;
25657;SDS011;13517;59.320;18.042;2023-05-23T03:52:30;10.63;;;4.47;;
25657;SDS011;13517;59.320;18.042;2023-05-23T03:54:56;7.07;;;3.15;;
25657;SDS011;13517;59.320;18.042;2023-05-23T03:57:21;7.50;;;4.03;;
25657;SDS011;13517;59.320;18.042;2023-05-23T03:59:47;12.23;;;3.95;;
25657;SDS011;13517;59.320;18.042;2023-05-23T04:02:12;5.82;;;3.13;;
25657;SDS011;13517;59.320;18.042;2023-05-23T04:04:37;8.50;;;3.30;;
25657;SDS011;13517;59.320;18.042;2023-05-23T04:07:03;13.15;;;3.25;;
25657;SDS011;13517;59.320;18.042;2023-05-23T04:09:29;12.45;;;3.30;;
25657;SDS011;13517;59.320;18.042;2023-05-23T04:11:55;9.75;;;3.38;;
25657;SDS011;13517;59.320;18.042;2023-05-23T04:14:20;9.23;;;3.38;;
25657;SDS011;13517;59.320;18.042;2023-05-23T04:16:46;6.75;;;3.35;;
25657;SDS011;13517;59.320;18.042;2023-05-23T04:19:12;7.18;;;3.30;;
25657;SDS011;13517;59.320;18.042;2023-05-23T04:21:37;8.63;;;3.42;;
25657;SDS011;13517;59.320;18.042;2023-05-23T04:24:02;4.57;;;2.92;;
25657;SDS011;13517;59.320;18.042;2023-05-23T04:26:28;6.35;;;3.42;;
25657;SDS011;13517;59.320;18.042;2023-05-23T04:28:54;10.18;;;3.70;;
25657;SDS011;13517;59.320;18.042;2023-05-23T04:31:19;15.65;;;3.72;;
25657;SDS011;13517;59.320;18.042;2023-05-23T04:33:48;18.67;;;4.22;;
25657;SDS011;13517;59.320;18.042;2023-05-23T04:36:14;6.53;;;3.40;;
25657;SDS011;13517;59.320;18.042;2023-05-23T04:38:40;11.88;;;3.58;;
25657;SDS011;13517;59.320;18.042;2023-05-23T04:41:06;7.43;;;3.63;;
25657;SDS011;13517;59.320;18.042;2023-05-23T04:43:34;12.75;;;3.65;;
25657;SDS011;13517;59.320;18.042;2023-05-23T04:46:01;7.35;;;3.33;;
25657;SDS011;13517;59.320;18.042;2023-05-23T04:48:27;9.43;;;3.67;;
25657;SDS011;13517;59.320;18.042;2023-05-23T04:50:53;9.20;;;3.58;;
25657;SDS011;13517;59.320;18.042;2023-05-23T04:53:20;9.30;;;3.83;;
25657;SDS011;13517;59.320;18.042;2023-05-23T04:55:48;8.65;;;2.97;;
25657;SDS011;13517;59.320;18.042;2023-05-23T04:58:13;14.35;;;3.67;;
25657;SDS011;13517;59.320;18.042;2023-05-23T05:00:39;10.10;;;3.67;;
25657;SDS011;13517;59.320;18.042;2023-05-23T05:03:04;16.52;;;4.03;;
25657;SDS011;13517;59.320;18.042;2023-05-23T05:05:30;10.55;;;3.83;;
25657;SDS011;13517;59.320;18.042;2023-05-23T05:07:55;16.17;;;3.75;;
25657;SDS011;13517;59.320;18.042;2023-05-23T05:10:21;9.05;;;3.10;;
25657;SDS011;13517;59.320;18.042;2023-05-23T05:12:46;18.77;;;3.58;;
25657;SDS011;13517;59.320;18.042;2023-05-23T05:15:13;10.45;;;2.88;;
25657;SDS011;13517;59.320;18.042;2023-05-23T05:17:41;9.93;;;3.13;;
25657;SDS011;13517;59.320;18.042;2023-05-23T05:20:07;11.77;;;3.15;;
25657;SDS011;13517;59.320;18.042;2023-05-23T05:22:34;8.52;;;3.13;;
25657;SDS011;13517;59.320;18.042;2023-05-23T05:25:01;8.00;;;3.28;;
25657;SDS011;13517;59.320;18.042;2023-05-23T05:27:27;8.23;;;2.88;;
25657;SDS011;13517;59.320;18.042;2023-05-23T05:29:53;10.57;;;3.00;;
25657;SDS011;13517;59.320;18.042;2023-05-23T05:32:21;16.92;;;3.20;;
25657;SDS011;13517;59.320;18.042;2023-05-23T05:34:46;7.13;;;3.13;;
25657;SDS011;13517;59.320;18.042;2023-05-23T05:37:12;18.42;;;3.45;;
25657;SDS011;13517;59.320;18.042;2023-05-23T05:39:38;9.00;;;3.15;;
25657;SDS011;13517;59.320;18.042;2023-05-23T05:42:03;8.52;;;3.50;;
25657;SDS011;13517;59.320;18.042;2023-05-23T05:44:29;10.27;;;3.00;;
25657;SDS011;13517;59.320;18.042;2023-05-23T05:46:55;10.85;;;3.10;;
25657;SDS011;13517;59.320;18.042;2023-05-23T05:49:20;5.28;;;3.00;;
25657;SDS011;13517;59.320;18.042;2023-05-23T05:51:46;5.95;;;3.08;;
25657;SDS011;13517;59.320;18.042;2023-05-23T05:54:12;8.55;;;2.97;;
25657;SDS011;13517;59.320;18.042;2023-05-23T05:56:37;10.77;;;3.03;;
25657;SDS011;13517;59.320;18.042;2023-05-23T05:59:03;7.93;;;3.53;;
25657;SDS011;13517;59.320;18.042;2023-05-23T06:01:28;11.82;;;3.58;;
25657;SDS011;13517;59.320;18.042;2023-05-23T06:03:54;14.00;;;3.42;;
25657;SDS011;13517;59.320;18.042;2023-05-23T06:06:20;13.15;;;3.17;;
25657;SDS011;13517;59.320;18.042;2023-05-23T06:08:46;10.00;;;3.00;;
25657;SDS011;13517;59.320;18.042;2023-05-23T06:11:12;9.95;;;3.47;;
25657;SDS011;13517;59.320;18.042;2023-05-23T06:13:37;8.32;;;3.30;;
25657;SDS011;13517;59.320;18.042;2023-05-23T06:16:03;5.53;;;2.97;;
25657;SDS011;13517;59.320;18.042;2023-05-23T06:18:28;11.45;;;3.17;;
25657;SDS011;13517;59.320;18.042;2023-05-23T06:20:54;17.05;;;3.38;;
25657;SDS011;13517;59.320;18.042;2023-05-23T06:23:20;9.13;;;3.03;;
25657;SDS011;13517;59.320;18.042;2023-05-23T06:25:45;14.73;;;3.40;;
25657;SDS011;13517;59.320;18.042;2023-05-23T06:28:10;9.32;;;3.00;;
25657;SDS011;13517;59.320;18.042;2023-05-23T06:30:36;17.00;;;3.35;;
25657;SDS011;13517;59.320;18.042;2023-05-23T06:33:02;11.70;;;3.15;;
25657;SDS011;13517;59.320;18.042;2023-05-23T06:35:28;5.93;;;3.20;;
25657;SDS011;13517;59.320;18.042;2023-05-23T06:37:54;7.97;;;2.85;;
25657;SDS011;13517;59.320;18.042;2023-05-23T06:40:19;15.52;;;3.63;;
25657;SDS011;13517;59.320;18.042;2023-05-23T06:42:45;8.63;;;3.45;;
25657;SDS011;13517;59.320;18.042;2023-05-23T06:45:11;9.70;;;3.08;;
25657;SDS011;13517;59.320;18.042;2023-05-23T06:47:37;11.45;;;3.70;;
25657;SDS011;13517;59.320;18.042;2023-05-23T06:50:02;15.48;;;3.70;;
25657;SDS011;13517;59.320;18.042;2023-05-23T06:52:28;9.77;;;3.17;;
25657;SDS011;13517;59.320;18.042;2023-05-23T06:54:53;9.60;;;2.92;;
25657;SDS011;13517;59.320;18.042;2023-05-23T06:57:19;13.15;;;3.25;;
25657;SDS011;13517;59.320;18.042;2023-05-23T06:59:45;6.28;;;3.13;;
25657;SDS011;13517;59.320;18.042;2023-05-23T07:02:10;10.65;;;2.97;;
25657;SDS011;13517;59.320;18.042;2023-05-23T07:04:35;11.20;;;2.92;;
25657;SDS011;13517;59.320;18.042;2023-05-23T07:07:01;9.18;;;3.88;;
25657;SDS011;13517;59.320;18.042;2023-05-23T07:09:26;9.23;;;3.10;;
25657;SDS011;13517;59.320;18.042;2023-05-23T07:11:52;7.95;;;3.00;;
25657;SDS011;13517;59.320;18.042;2023-05-23T07:14:17;8.90;;;3.47;;
25657;SDS011;13517;59.320;18.042;2023-05-23T07:16:44;12.43;;;3.55;;
25657;SDS011;13517;59.320;18.042;2023-05-23T07:19:09;13.75;;;3.28;;
25657;SDS011;13517;59.320;18.042;2023-05-23T07:21:36;9.98;;;2.90;;
25657;SDS011;13517;59.320;18.042;2023-05-23T07:24:01;21.27;;;3.50;;
25657;SDS011;13517;59.320;18.042;2023-05-23T07:26:27;8.45;;;3.03;;
25657;SDS011;13517;59.320;18.042;2023-05-23T07:28:52;9.10;;;2.60;;
25657;SDS011;13517;59.320;18.042;2023-05-23T07:31:18;9.05;;;2.80;;
25657;SDS011;13517;59.320;18.042;2023-05-23T07:33:43;5.47;;;2.85;;
25657;SDS011;13517;59.320;18.042;2023-05-23T07:36:09;10.25;;;3.10;;
25657;SDS011;13517;59.320;18.042;2023-05-23T07:38:35;5.55;;;2.90;;
25657;SDS011;13517;59.320;18.042;2023-05-23T07:41:00;9.30;;;3.30;;
25657;SDS011;13517;59.320;18.042;2023-05-23T07:43:26;7.78;;;3.10;;
25657;SDS011;13517;59.320;18.042;2023-05-23T07:45:51;5.53;;;3.00;;
25657;SDS011;13517;59.320;18.042;2023-05-23T07:48:17;10.35;;;2.67;;
25657;SDS011;13517;59.320;18.042;2023-05-23T07:50:42;11.05;;;3.30;;
25657;SDS011;13517;59.320;18.042;2023-05-23T07:53:07;6.10;;;3.08;;
25657;SDS011;13517;59.320;18.042;2023-05-23T07:55:33;11.02;;;3.55;;
25657;SDS011;13517;59.320;18.042;2023-05-23T07:57:58;13.40;;;3.45;;
25657;SDS011;13517;59.320;18.042;2023-05-23T08:00:24;7.95;;;2.80;;
25657;SDS011;13517;59.320;18.042;2023-05-23T08:02:49;14.65;;;2.78;;
25657;SDS011;13517;59.320;18.042;2023-05-23T08:05:15;5.50;;;2.95;;
25657;SDS011;13517;59.320;18.042;2023-05-23T08:07:40;5.70;;;2.75;;
25657;SDS011;13517;59.320;18.042;2023-05-23T08:10:06;6.88;;;2.53;;
25657;SDS011;13517;59.320;18.042;2023-05-23T08:12:32;6.90;;;2.85;;
25657;SDS011;13517;59.320;18.042;2023-05-23T08:14:57;10.63;;;3.00;;
25657;SDS011;13517;59.320;18.042;2023-05-23T08:17:23;9.60;;;2.78;;
25657;SDS011;13517;59.320;18.042;2023-05-23T08:19:48;12.07;;;3.42;;
25657;SDS011;13517;59.320;18.042;2023-05-23T08:22:14;4.30;;;2.55;;
25657;SDS011;13517;59.320;18.042;2023-05-23T08:24:39;6.53;;;2.50;;
25657;SDS011;13517;59.320;18.042;2023-05-23T08:27:05;11.82;;;2.65;;
25657;SDS011;13517;59.320;18.042;2023-05-23T08:29:31;6.80;;;3.05;;
25657;SDS011;13517;59.320;18.042;2023-05-23T08:31:59;12.55;;;2.67;;
25657;SDS011;13517;59.320;18.042;2023-05-23T08:34:24;11.95;;;2.38;;
25657;SDS011;13517;59.320;18.042;2023-05-23T08:36:50;15.27;;;2.97;;
25657;SDS011;13517;59.320;18.042;2023-05-23T08:39:16;8.77;;;3.10;;
25657;SDS011;13517;59.320;18.042;2023-05-23T08:41:42;5.63;;;2.80;;
25657;SDS011;13517;59.320;18.042;2023-05-23T08:44:08;6.25;;;2.58;;
25657;SDS011;13517;59.320;18.042;2023-05-23T08:46:35;8.27;;;2.58;;
25657;SDS011;13517;59.320;18.042;2023-05-23T08:49:05;4.32;;;2.40;;
25657;SDS011;13517;59.320;18.042;2023-05-23T08:51:31;7.95;;;2.60;;
25657;SDS011;13517;59.320;18.042;2023-05-23T08:54:00;8.73;;;2.60;;
25657;SDS011;13517;59.320;18.042;2023-05-23T08:56:26;6.47;;;2.83;;
25657;SDS011;13517;59.320;18.042;2023-05-23T08:58:52;6.85;;;3.00;;
25657;SDS011;13517;59.320;18.042;2023-05-23T09:01:18;5.28;;;2.50;;
25657;SDS011;13517;59.320;18.042;2023-05-23T09:03:44;8.20;;;2.83;;
25657;SDS011;13517;59.320;18.042;2023-05-23T09:06:10;8.52;;;2.50;;
25657;SDS011;13517;59.320;18.042;2023-05-23T09:08:35;4.13;;;2.30;;
25657;SDS011;13517;59.320;18.042;2023-05-23T09:11:02;4.78;;;2.78;;
25657;SDS011;13517;59.320;18.042;2023-05-23T09:13:31;7.10;;;2.72;;
25657;SDS011;13517;59.320;18.042;2023-05-23T09:18:43;5.15;;;2.63;;
25657;SDS011;13517;59.320;18.042;2023-05-23T09:21:09;5.43;;;2.53;;
25657;SDS011;13517;59.320;18.042;2023-05-23T09:23:36;9.68;;;3.22;;
25657;SDS011;13517;59.320;18.042;2023-05-23T09:26:06;4.97;;;2.30;;
25657;SDS011;13517;59.320;18.042;2023-05-23T09:28:33;11.65;;;2.55;;
25657;SDS011;13517;59.320;18.042;2023-05-23T09:31:03;10.73;;;3.10;;
25657;SDS011;13517;59.320;18.042;2023-05-23T09:33:47;5.72;;;2.58;;
25657;SDS011;13517;59.320;18.042;2023-05-23T09:36:14;10.48;;;3.20;;
25657;SDS011;13517;59.320;18.042;2023-05-23T09:38:41;12.35;;;3.10;;
25657;SDS011;13517;59.320;18.042;2023-05-23T09:41:08;11.95;;;2.78;;
25657;SDS011;13517;59.320;18.042;2023-05-23T09:43:38;6.53;;;3.15;;
25657;SDS011;13517;59.320;18.042;2023-05-23T09:46:08;7.60;;;3.50;;
25657;SDS011;13517;59.320;18.042;2023-05-23T09:48:35;6.03;;;2.78;;
25657;SDS011;13517;59.320;18.042;2023-05-23T09:51:04;8.63;;;2.92;;
25657;SDS011;13517;59.320;18.042;2023-05-23T09:53:30;4.45;;;2.40;;
25657;SDS011;13517;59.320;18.042;2023-05-23T09:55:57;6.07;;;2.72;;
25657;SDS011;13517;59.320;18.042;2023-05-23T09:58:24;5.85;;;2.78;;
25657;SDS011;13517;59.320;18.042;2023-05-23T10:00:51;5.45;;;3.03;;
25657;SDS011;13517;59.320;18.042;2023-05-23T10:03:29;5.25;;;2.78;;
25657;SDS011;13517;59.320;18.042;2023-05-23T10:05:56;7.22;;;2.78;;
25657;SDS011;13517;59.320;18.042;2023-05-23T10:08:38;8.32;;;2.17;;
25657;SDS011;13517;59.320;18.042;2023-05-23T10:12:09;5.10;;;2.90;;
25657;SDS011;13517;59.320;18.042;2023-05-23T10:14:00;5.78;;;2.75;;
25657;SDS011;13517;59.320;18.042;2023-05-23T10:19:52;7.28;;;2.55;;
25657;SDS011;13517;59.320;18.042;2023-05-23T10:22:11;5.35;;;2.45;;
25657;SDS011;13517;59.320;18.042;2023-05-23T10:24:39;4.07;;;2.50;;
25657;SDS011;13517;59.320;18.042;2023-05-23T10:27:06;5.95;;;2.65;;
25657;SDS011;13517;59.320;18.042;2023-05-23T10:29:31;5.13;;;2.70;;
25657;SDS011;13517;59.320;18.042;2023-05-23T10:32:00;4.25;;;2.50;;
25657;SDS011;13517;59.320;18.042;2023-05-23T10:34:45;4.07;;;2.50;;
25657;SDS011;13517;59.320;18.042;2023-05-23T10:37:31;8.18;;;2.78;;
25657;SDS011;13517;59.320;18.042;2023-05-23T10:45:20;6.47;;;2.50;;
25657;SDS011;13517;59.320;18.042;2023-05-23T10:47:47;3.55;;;2.55;;
25657;SDS011;13517;59.320;18.042;2023-05-23T10:50:15;5.30;;;2.40;;
25657;SDS011;13517;59.320;18.042;2023-05-23T10:52:58;9.00;;;2.50;;
25657;SDS011;13517;59.320;18.042;2023-05-23T10:55:30;7.72;;;3.28;;
25657;SDS011;13517;59.320;18.042;2023-05-23T10:58:09;7.82;;;3.10;;
25657;SDS011;13517;59.320;18.042;2023-05-23T11:00:37;5.15;;;2.72;;
25657;SDS011;13517;59.320;18.042;2023-05-23T11:03:03;6.38;;;3.38;;
25657;SDS011;13517;59.320;18.042;2023-05-23T11:05:33;4.05;;;2.33;;
25657;SDS011;13517;59.320;18.042;2023-05-23T11:16:29;6.40;;;2.70;;
25657;SDS011;13517;59.320;18.042;2023-05-23T11:21:44;3.85;;;2.67;;
25657;SDS011;13517;59.320;18.042;2023-05-23T11:24:10;7.15;;;2.42;;
25657;SDS011;13517;59.320;18.042;2023-05-23T11:26:36;3.47;;;2.28;;
25657;SDS011;13517;59.320;18.042;2023-05-23T11:29:01;6.15;;;2.50;;
25657;SDS011;13517;59.320;18.042;2023-05-23T11:31:35;5.35;;;2.40;;
25657;SDS011;13517;59.320;18.042;2023-05-23T11:34:02;5.88;;;2.55;;
25657;SDS011;13517;59.320;18.042;2023-05-23T11:36:27;5.05;;;2.15;;
25657;SDS011;13517;59.320;18.042;2023-05-23T11:38:53;8.07;;;2.42;;
25657;SDS011;13517;59.320;18.042;2023-05-23T11:41:19;3.95;;;2.80;;
25657;SDS011;13517;59.320;18.042;2023-05-23T11:43:51;3.80;;;2.40;;
25657;SDS011;13517;59.320;18.042;2023-05-23T11:46:18;8.10;;;2.67;;
25657;SDS011;13517;59.320;18.042;2023-05-23T11:48:47;14.60;;;2.88;;
25657;SDS011;13517;59.320;18.042;2023-05-23T11:51:13;5.07;;;2.33;;
25657;SDS011;13517;59.320;18.042;2023-05-23T11:53:39;10.13;;;2.70;;
25657;SDS011;13517;59.320;18.042;2023-05-23T11:56:05;3.88;;;2.40;;
25657;SDS011;13517;59.320;18.042;2023-05-23T11:58:35;7.50;;;2.72;;
25657;SDS011;13517;59.320;18.042;2023-05-23T12:01:05;8.60;;;2.90;;
25657;SDS011;13517;59.320;18.042;2023-05-23T12:03:33;3.67;;;2.30;;
25657;SDS011;13517;59.320;18.042;2023-05-23T12:06:19;3.30;;;2.40;;
25657;SDS011;13517;59.320;18.042;2023-05-23T12:08:46;7.65;;;2.70;;
25657;SDS011;13517;59.320;18.042;2023-05-23T12:11:12;7.90;;;2.58;;
25657;SDS011;13517;59.320;18.042;2023-05-23T12:13:39;5.32;;;2.63;;
25657;SDS011;13517;59.320;18.042;2023-05-23T12:16:06;6.18;;;2.28;;
25657;SDS011;13517;59.320;18.042;2023-05-23T12:18:32;11.23;;;2.58;;
25657;SDS011;13517;59.320;18.042;2023-05-23T12:21:01;11.50;;;3.08;;
25657;SDS011;13517;59.320;18.042;2023-05-23T12:23:27;4.10;;;2.45;;
25657;SDS011;13517;59.320;18.042;2023-05-23T12:25:54;10.13;;;2.92;;
25657;SDS011;13517;59.320;18.042;2023-05-23T12:28:21;10.18;;;3.45;;
25657;SDS011;13517;59.320;18.042;2023-05-23T12:31:09;3.35;;;2.38;;
25657;SDS011;13517;59.320;18.042;2023-05-23T12:33:40;6.93;;;2.70;;
25657;SDS011;13517;59.320;18.042;2023-05-23T12:36:10;3.45;;;2.30;;
25657;SDS011;13517;59.320;18.042;2023-05-23T12:38:36;5.00;;;2.53;;
25657;SDS011;13517;59.320;18.042;2023-05-23T12:41:10;5.55;;;2.55;;
25657;SDS011;13517;59.320;18.042;2023-05-23T12:43:39;4.13;;;2.92;;
25657;SDS011;13517;59.320;18.042;2023-05-23T12:46:05;6.78;;;2.35;;
25657;SDS011;13517;59.320;18.042;2023-05-23T12:48:32;6.85;;;2.75;;
25657;SDS011;13517;59.320;18.042;2023-05-23T12:50:57;3.85;;;2.72;;
25657;SDS011;13517;59.320;18.042;2023-05-23T12:53:25;4.72;;;2.65;;
25657;SDS011;13517;59.320;18.042;2023-05-23T12:55:50;3.70;;;2.45;;
25657;SDS011;13517;59.320;18.042;2023-05-23T12:58:16;5.55;;;2.72;;
25657;SDS011;13517;59.320;18.042;2023-05-23T13:00:42;4.35;;;2.45;;
25657;SDS011;13517;59.320;18.042;2023-05-23T13:03:07;5.07;;;2.72;;
25657;SDS011;13517;59.320;18.042;2023-05-23T13:05:33;7.03;;;2.50;;
25657;SDS011;13517;59.320;18.042;2023-05-23T13:07:58;8.63;;;2.50;;
25657;SDS011;13517;59.320;18.042;2023-05-23T13:10:24;5.03;;;2.05;;
25657;SDS011;13517;59.320;18.042;2023-05-23T13:12:49;7.43;;;2.80;;
25657;SDS011;13517;59.320;18.042;2023-05-23T13:15:16;4.72;;;2.47;;
25657;SDS011;13517;59.320;18.042;2023-05-23T13:17:41;8.18;;;2.80;;
25657;SDS011;13517;59.320;18.042;2023-05-23T13:20:07;4.28;;;2.50;;
25657;SDS011;13517;59.320;18.042;2023-05-23T13:22:33;4.72;;;2.47;;
25657;SDS011;13517;59.320;18.042;2023-05-23T13:24:59;7.18;;;2.40;;
25657;SDS011;13517;59.320;18.042;2023-05-23T13:27:24;6.72;;;2.40;;
25657;SDS011;13517;59.320;18.042;2023-05-23T13:29:50;4.07;;;2.60;;
25657;SDS011;13517;59.320;18.042;2023-05-23T13:32:15;8.88;;;2.38;;
25657;SDS011;13517;59.320;18.042;2023-05-23T13:34:41;5.15;;;2.75;;
25657;SDS011;13517;59.320;18.042;2023-05-23T13:37:06;11.27;;;3.30;;
25657;SDS011;13517;59.320;18.042;2023-05-23T13:39:32;7.22;;;2.50;;
25657;SDS011;13517;59.320;18.042;2023-05-23T13:41:57;10.25;;;2.97;;
25657;SDS011;13517;59.320;18.042;2023-05-23T13:44:23;4.47;;;2.60;;
25657;SDS011;13517;59.320;18.042;2023-05-23T13:46:48;3.92;;;2.45;;
25657;SDS011;13517;59.320;18.042;2023-05-23T13:49:14;5.57;;;2.80;;
25657;SDS011;13517;59.320;18.042;2023-05-23T13:51:40;6.45;;;2.70;;
25657;SDS011;13517;59.320;18.042;2023-05-23T13:54:07;5.75;;;3.28;;
25657;SDS011;13517;59.320;18.042;2023-05-23T13:56:32;9.77;;;2.78;;
25657;SDS011;13517;59.320;18.042;2023-05-23T13:58:58;8.77;;;2.90;;
25657;SDS011;13517;59.320;18.042;2023-05-23T14:01:23;5.40;;;2.75;;
25657;SDS011;13517;59.320;18.042;2023-05-23T14:03:49;11.05;;;2.15;;
25657;SDS011;13517;59.320;18.042;2023-05-23T14:06:14;9.80;;;2.58;;
25657;SDS011;13517;59.320;18.042;2023-05-23T14:08:40;7.38;;;2.60;;
25657;SDS011;13517;59.320;18.042;2023-05-23T14:11:05;4.90;;;2.67;;
25657;SDS011;13517;59.320;18.042;2023-05-23T14:13:31;9.75;;;2.67;;
25657;SDS011;13517;59.320;18.042;2023-05-23T14:15:56;3.33;;;2.42;;
25657;SDS011;13517;59.320;18.042;2023-05-23T14:18:22;6.80;;;2.78;;
25657;SDS011;13517;59.320;18.042;2023-05-23T14:20:47;8.38;;;2.63;;
25657;SDS011;13517;59.320;18.042;2023-05-23T14:23:13;3.10;;;2.40;;
25657;SDS011;13517;59.320;18.042;2023-05-23T14:25:38;4.22;;;2.53;;
25657;SDS011;13517;59.320;18.042;2023-05-23T14:28:03;5.13;;;3.03;;
25657;SDS011;13517;59.320;18.042;2023-05-23T14:30:29;10.43;;;2.45;;
25657;SDS011;13517;59.320;18.042;2023-05-23T14:32:54;6.85;;;3.03;;
25657;SDS011;13517;59.320;18.042;2023-05-23T14:35:20;5.70;;;2.67;;
25657;SDS011;13517;59.320;18.042;2023-05-23T14:37:49;6.75;;;2.47;;
25657;SDS011;13517;59.320;18.042;2023-05-23T14:40:15;5.72;;;2.38;;
25657;SDS011;13517;59.320;18.042;2023-05-23T14:42:40;4.88;;;2.30;;
25657;SDS011;13517;59.320;18.042;2023-05-23T14:45:06;4.47;;;2.38;;
25657;SDS011;13517;59.320;18.042;2023-05-23T14:47:32;9.02;;;2.65;;
25657;SDS011;13517;59.320;18.042;2023-05-23T14:49:57;8.48;;;3.28;;
25657;SDS011;13517;59.320;18.042;2023-05-23T14:52:23;9.57;;;2.63;;
25657;SDS011;13517;59.320;18.042;2023-05-23T14:54:48;5.63;;;2.70;;
25657;SDS011;13517;59.320;18.042;2023-05-23T14:57:14;5.70;;;2.83;;
25657;SDS011;13517;59.320;18.042;2023-05-23T14:59:39;5.70;;;2.45;;